sensor_id;sensor_type;location;lat;lon;timestamp;pressure;altitude;pressure_sealevel;temperature;humidity
28448;BME280;15675;52.870;-1.416;2023-12-20T00:02:18;101282.78;;;7.53;100.00
28448;BME280;15675;52.870;-1.416;2023-12-20T00:04:44;101269.56;;;7.41;100.00
28448;BME280;15675;52.870;-1.416;2023-12-20T00:07:09;101261.75;;;7.39;100.00
28448;BME280;15675;52.870;-1.416;2023-12-20T00:09:35;101267.50;;;7.28;100.00
28448;BME280;15675;52.870;-1.416;2023-12-20T00:12:00;101279.31;;;7.19;100.00
28448;BME280;15675;52.870;-1.416;2023-12-20T00:14:26;101272.34;;;7.15;100.00
28448;BME280;15675;52.870;-1.416;2023-12-20T00:16:51;101284.97;;;7.38;100.00
28448;BME280;15675;52.870;-1.416;2023-12-20T00:19:17;101268.84;;;7.13;100.00
28448;BME280;15675;52.870;-1.416;2023-12-20T00:21:42;101266.38;;;7.18;100.00
28448;BME280;15675;52.870;-1.416;2023-12-20T00:24:08;101275.38;;;7.00;100.00
28448;BME280;15675;52.870;-1.416;2023-12-20T00:26:33;101277.72;;;7.23;100.00
28448;BME280;15675;52.870;-1.416;2023-12-20T00:28:59;101282.34;;;7.03;100.00
28448;BME280;15675;52.870;-1.416;2023-12-20T00:31:25;101275.28;;;6.96;100.00
28448;BME280;15675;52.870;-1.416;2023-12-20T00:33:50;101289.47;;;7.12;100.00
28448;BME280;15675;52.870;-1.416;2023-12-20T00:36:16;101291.81;;;7.36;100.00
28448;BME280;15675;52.870;-1.416;2023-12-20T00:38:42;101295.47;;;7.44;100.00
28448;BME280;15675;52.870;-1.416;2023-12-20T00:41:07;101291.75;;;7.33;100.00
28448;BME280;15675;52.870;-1.416;2023-12-20T00:43:33;101290.91;;;7.02;100.00
28448;BME280;15675;52.870;-1.416;2023-12-20T00:45:58;101290.56;;;7.20;100.00
28448;BME280;15675;52.870;-1.416;2023-12-20T00:48:25;101287.38;;;6.98;100.00
28448;BME280;15675;52.870;-1.416;2023-12-20T00:50:52;101293.28;;;7.26;100.00
28448;BME280;15675;52.870;-1.416;2023-12-20T00:53:18;101284.53;;;7.21;100.00
28448;BME280;15675;52.870;-1.416;2023-12-20T00:55:43;101290.78;;;7.29;100.00
28448;BME280;15675;52.870;-1.416;2023-12-20T00:58:10;101286.59;;;7.33;100.00
28448;BME280;15675;52.870;-1.416;2023-12-20T01:00:35;101282.44;;;7.06;100.00
28448;BME280;15675;52.870;-1.416;2023-12-20T01:03:01;101278.31;;;7.13;100.00
28448;BME280;15675;52.870;-1.416;2023-12-20T01:05:26;101278.31;;;7.13;100.00
28448;BME280;15675;52.870;-1.416;2023-12-20T01:07:52;101287.06;;;7.19;100.00
28448;BME280;15675;52.870;-1.416;2023-12-20T01:10:17;101282.94;;;7.26;100.00
28448;BME280;15675;52.870;-1.416;2023-12-20T01:12:43;101268.94;;;7.16;100.00
28448;BME280;15675;52.870;-1.416;2023-12-20T01:15:09;101279.66;;;7.32;100.00
28448;BME280;15675;52.870;-1.416;2023-12-20T01:17:35;101280.38;;;7.26;100.00
28448;BME280;15675;52.870;-1.416;2023-12-20T01:20:01;101280.50;;;6.99;100.00
28448;BME280;15675;52.870;-1.416;2023-12-20T01:22:26;101286.63;;;7.34;100.00
28448;BME280;15675;52.870;-1.416;2023-12-20T01:24:53;101283.13;;;7.34;100.00
28448;BME280;15675;52.870;-1.416;2023-12-20T01:27:18;101284.84;;;7.33;100.00
28448;BME280;15675;52.870;-1.416;2023-12-20T01:29:44;101282.69;;;7.49;100.00
28448;BME280;15675;52.870;-1.416;2023-12-20T01:32:09;101266.34;;;7.50;100.00
28448;BME280;15675;52.870;-1.416;2023-12-20T01:34:35;101289.81;;;7.59;100.00
28448;BME280;15675;52.870;-1.416;2023-12-20T01:37:01;101276.00;;;7.57;100.00
28448;BME280;15675;52.870;-1.416;2023-12-20T01:39:27;101284.66;;;7.59;100.00
28448;BME280;15675;52.870;-1.416;2023-12-20T01:41:53;101270.97;;;7.63;100.00
28448;BME280;15675;52.870;-1.416;2023-12-20T01:44:19;101270.59;;;7.83;100.00
28448;BME280;15675;52.870;-1.416;2023-12-20T01:46:45;101274.03;;;7.83;100.00
28448;BME280;15675;52.870;-1.416;2023-12-20T01:49:11;101269.38;;;7.68;100.00
28448;BME280;15675;52.870;-1.416;2023-12-20T01:51:37;101273.53;;;7.62;100.00
28448;BME280;15675;52.870;-1.416;2023-12-20T01:54:03;101266.53;;;7.94;100.00
28448;BME280;15675;52.870;-1.416;2023-12-20T01:56:31;101267.03;;;7.79;100.00
28448;BME280;15675;52.870;-1.416;2023-12-20T01:58:56;101264.13;;;8.02;100.00
28448;BME280;15675;52.870;-1.416;2023-12-20T02:01:22;101267.66;;;8.05;100.00
28448;BME280;15675;52.870;-1.416;2023-12-20T02:03:48;101263.47;;;8.12;100.00
28448;BME280;15675;52.870;-1.416;2023-12-20T02:06:14;101259.28;;;8.16;100.00
28448;BME280;15675;52.870;-1.416;2023-12-20T02:08:40;101254.47;;;7.94;100.00
28448;BME280;15675;52.870;-1.416;2023-12-20T02:11:05;101255.09;;;7.83;100.00
28448;BME280;15675;52.870;-1.416;2023-12-20T02:13:31;101250.56;;;8.12;100.00
28448;BME280;15675;52.870;-1.416;2023-12-20T02:15:57;101240.19;;;8.10;100.00
28448;BME280;15675;52.870;-1.416;2023-12-20T02:18:23;101240.16;;;8.09;100.00
28448;BME280;15675;52.870;-1.416;2023-12-20T02:20:49;101250.06;;;8.28;100.00
28448;BME280;15675;52.870;-1.416;2023-12-20T02:23:14;101237.78;;;8.18;100.00
28448;BME280;15675;52.870;-1.416;2023-12-20T02:25:40;101238.34;;;8.05;100.00
28448;BME280;15675;52.870;-1.416;2023-12-20T02:28:06;101233.88;;;7.98;100.00
28448;BME280;15675;52.870;-1.416;2023-12-20T02:30:32;101238.53;;;8.12;100.00
28448;BME280;15675;52.870;-1.416;2023-12-20T02:32:59;101226.44;;;8.13;100.00
28448;BME280;15675;52.870;-1.416;2023-12-20T02:35:26;101235.41;;;8.29;100.00
28448;BME280;15675;52.870;-1.416;2023-12-20T02:37:51;101233.31;;;8.11;100.00
28448;BME280;15675;52.870;-1.416;2023-12-20T02:40:17;101238.34;;;8.05;100.00
28448;BME280;15675;52.870;-1.416;2023-12-20T02:42:43;101238.41;;;8.08;100.00
28448;BME280;15675;52.870;-1.416;2023-12-20T02:45:08;101234.25;;;8.15;100.00
28448;BME280;15675;52.870;-1.416;2023-12-20T02:47:34;101227.94;;;8.02;100.00
28448;BME280;15675;52.870;-1.416;2023-12-20T02:49:59;101228.41;;;8.25;100.00
28448;BME280;15675;52.870;-1.416;2023-12-20T02:52:27;101238.69;;;8.22;100.00
28448;BME280;15675;52.870;-1.416;2023-12-20T02:54:52;101235.78;;;8.46;100.00
28448;BME280;15675;52.870;-1.416;2023-12-20T02:57:18;101242.56;;;8.41;100.00
28448;BME280;15675;52.870;-1.416;2023-12-20T02:59:43;101238.66;;;8.58;100.00
28448;BME280;15675;52.870;-1.416;2023-12-20T03:02:09;101231.25;;;8.36;100.00
28448;BME280;15675;52.870;-1.416;2023-12-20T03:04:34;101235.91;;;8.52;100.00
28448;BME280;15675;52.870;-1.416;2023-12-20T03:07:00;101223.75;;;8.46;100.00
28448;BME280;15675;52.870;-1.416;2023-12-20T03:09:25;101218.69;;;8.53;100.00
28448;BME280;15675;52.870;-1.416;2023-12-20T03:11:51;101211.06;;;8.60;100.00
28448;BME280;15675;52.870;-1.416;2023-12-20T03:14:16;101206.03;;;8.25;100.00
28448;BME280;15675;52.870;-1.416;2023-12-20T03:16:47;101194.91;;;8.29;100.00
28448;BME280;15675;52.870;-1.416;2023-12-20T03:19:12;101198.53;;;8.39;100.00
28448;BME280;15675;52.870;-1.416;2023-12-20T03:21:38;101199.13;;;8.67;100.00
28448;BME280;15675;52.870;-1.416;2023-12-20T03:24:03;101209.50;;;8.69;100.00
28448;BME280;15675;52.870;-1.416;2023-12-20T03:26:29;101198.38;;;8.73;100.00
28448;BME280;15675;52.870;-1.416;2023-12-20T03:28:54;101184.59;;;8.74;100.00
28448;BME280;15675;52.870;-1.416;2023-12-20T03:31:20;101178.81;;;8.89;100.00
28448;BME280;15675;52.870;-1.416;2023-12-20T03:33:46;101175.06;;;8.73;100.00
28448;BME280;15675;52.870;-1.416;2023-12-20T03:36:11;101167.59;;;8.44;100.00
28448;BME280;15675;52.870;-1.416;2023-12-20T03:38:37;101164.44;;;8.57;100.00
28448;BME280;15675;52.870;-1.416;2023-12-20T03:41:02;101175.81;;;8.66;100.00
28448;BME280;15675;52.870;-1.416;2023-12-20T03:43:28;101179.72;;;8.45;100.00
28448;BME280;15675;52.870;-1.416;2023-12-20T03:45:54;101167.84;;;8.55;100.00
28448;BME280;15675;52.870;-1.416;2023-12-20T03:48:19;101178.97;;;8.52;100.00
28448;BME280;15675;52.870;-1.416;2023-12-20T03:50:45;101186.09;;;8.62;100.00
28448;BME280;15675;52.870;-1.416;2023-12-20T03:53:10;101194.56;;;9.01;100.00
28448;BME280;15675;52.870;-1.416;2023-12-20T03:55:35;101190.59;;;8.71;100.00
28448;BME280;15675;52.870;-1.416;2023-12-20T03:58:01;101174.69;;;8.53;100.00
28448;BME280;15675;52.870;-1.416;2023-12-20T04:00:26;101178.31;;;8.61;100.00
28448;BME280;15675;52.870;-1.416;2023-12-20T04:02:52;101183.91;;;8.84;100.00
28448;BME280;15675;52.870;-1.416;2023-12-20T04:05:18;101189.94;;;8.83;100.00
28448;BME280;15675;52.870;-1.416;2023-12-20T04:07:43;101201.41;;;8.97;100.00
28448;BME280;15675;52.870;-1.416;2023-12-20T04:10:09;101185.22;;;8.62;100.00
28448;BME280;15675;52.870;-1.416;2023-12-20T04:12:34;101202.75;;;8.75;100.00
28448;BME280;15675;52.870;-1.416;2023-12-20T04:15:00;101180.41;;;8.82;100.00
28448;BME280;15675;52.870;-1.416;2023-12-20T04:17:26;101178.47;;;8.70;100.00
28448;BME280;15675;52.870;-1.416;2023-12-20T04:19:52;101175.13;;;8.76;100.00
28448;BME280;15675;52.870;-1.416;2023-12-20T04:22:18;101183.88;;;8.81;100.00
28448;BME280;15675;52.870;-1.416;2023-12-20T04:24:44;101182.66;;;8.63;100.00
28448;BME280;15675;52.870;-1.416;2023-12-20T04:27:10;101162.91;;;8.67;100.00
28448;BME280;15675;52.870;-1.416;2023-12-20T04:29:35;101169.81;;;8.68;100.00
28448;BME280;15675;52.870;-1.416;2023-12-20T04:32:01;101176.81;;;8.72;100.00
28448;BME280;15675;52.870;-1.416;2023-12-20T04:34:27;101168.06;;;8.67;100.00
28448;BME280;15675;52.870;-1.416;2023-12-20T04:36:53;101158.66;;;8.71;100.00
28448;BME280;15675;52.870;-1.416;2023-12-20T04:39:18;101150.34;;;8.89;100.00
28448;BME280;15675;52.870;-1.416;2023-12-20T04:41:44;101158.59;;;8.69;100.00
28448;BME280;15675;52.870;-1.416;2023-12-20T04:44:09;101146.56;;;8.70;100.00
28448;BME280;15675;52.870;-1.416;2023-12-20T04:46:35;101131.06;;;8.71;100.00
28448;BME280;15675;52.870;-1.416;2023-12-20T04:49:01;101121.94;;;8.95;100.00
28448;BME280;15675;52.870;-1.416;2023-12-20T04:51:27;101147.91;;;8.96;100.00
28448;BME280;15675;52.870;-1.416;2023-12-20T04:53:52;101154.47;;;8.79;100.00
28448;BME280;15675;52.870;-1.416;2023-12-20T04:56:18;101151.78;;;8.73;100.00
28448;BME280;15675;52.870;-1.416;2023-12-20T04:58:43;101131.31;;;8.85;100.00
28448;BME280;15675;52.870;-1.416;2023-12-20T05:01:09;101159.69;;;8.80;100.00
28448;BME280;15675;52.870;-1.416;2023-12-20T05:03:35;101155.50;;;8.87;100.00
28448;BME280;15675;52.870;-1.416;2023-12-20T05:06:01;101143.84;;;8.63;100.00
28448;BME280;15675;52.870;-1.416;2023-12-20T05:08:26;101153.06;;;8.96;100.00
28448;BME280;15675;52.870;-1.416;2023-12-20T05:10:55;101144.34;;;8.91;100.00
28448;BME280;15675;52.870;-1.416;2023-12-20T05:13:21;101135.78;;;8.95;100.00
28448;BME280;15675;52.870;-1.416;2023-12-20T05:15:47;101136.56;;;8.91;100.00
28448;BME280;15675;52.870;-1.416;2023-12-20T05:18:13;101118.03;;;8.67;100.00
28448;BME280;15675;52.870;-1.416;2023-12-20T05:20:39;101119.78;;;8.69;100.00
28448;BME280;15675;52.870;-1.416;2023-12-20T05:23:05;101142.19;;;8.67;100.00
28448;BME280;15675;52.870;-1.416;2023-12-20T05:25:31;101135.88;;;8.53;100.00
28448;BME280;15675;52.870;-1.416;2023-12-20T05:27:56;101129.31;;;8.70;100.00
28448;BME280;15675;52.870;-1.416;2023-12-20T05:30:22;101130.88;;;8.62;100.00
28448;BME280;15675;52.870;-1.416;2023-12-20T05:32:48;101142.41;;;8.78;100.00
28448;BME280;15675;52.870;-1.416;2023-12-20T05:35:13;101137.81;;;8.63;100.00
28448;BME280;15675;52.870;-1.416;2023-12-20T05:37:39;101151.84;;;8.76;100.00
28448;BME280;15675;52.870;-1.416;2023-12-20T05:40:05;101151.25;;;8.91;100.00
28448;BME280;15675;52.870;-1.416;2023-12-20T05:42:30;101140.56;;;8.72;100.00
28448;BME280;15675;52.870;-1.416;2023-12-20T05:44:56;101115.19;;;8.53;100.00
28448;BME280;15675;52.870;-1.416;2023-12-20T05:47:21;101131.91;;;8.72;100.00
28448;BME280;15675;52.870;-1.416;2023-12-20T05:49:47;101124.09;;;8.69;100.00
28448;BME280;15675;52.870;-1.416;2023-12-20T05:52:12;101114.59;;;8.69;100.00
28448;BME280;15675;52.870;-1.416;2023-12-20T05:54:38;101114.19;;;8.95;100.00
28448;BME280;15675;52.870;-1.416;2023-12-20T05:57:04;101123.63;;;8.91;100.00
28448;BME280;15675;52.870;-1.416;2023-12-20T05:59:29;101099.28;;;8.80;100.00
28448;BME280;15675;52.870;-1.416;2023-12-20T06:01:55;101101.88;;;8.81;100.00
28448;BME280;15675;52.870;-1.416;2023-12-20T06:04:21;101107.94;;;8.82;100.00
28448;BME280;15675;52.870;-1.416;2023-12-20T06:06:47;101122.06;;;9.01;100.00
28448;BME280;15675;52.870;-1.416;2023-12-20T06:09:12;101118.53;;;8.96;100.00
28448;BME280;15675;52.870;-1.416;2023-12-20T06:11:38;101147.94;;;9.00;100.00
28448;BME280;15675;52.870;-1.416;2023-12-20T06:14:03;101133.34;;;9.05;100.00
28448;BME280;15675;52.870;-1.416;2023-12-20T06:16:29;101120.09;;;8.86;100.00
28448;BME280;15675;52.870;-1.416;2023-12-20T06:18:54;101134.50;;;9.22;100.00
28448;BME280;15675;52.870;-1.416;2023-12-20T06:21:20;101119.34;;;8.93;100.00
28448;BME280;15675;52.870;-1.416;2023-12-20T06:23:46;101117.22;;;9.23;100.00
28448;BME280;15675;52.870;-1.416;2023-12-20T06:26:11;101102.28;;;9.06;100.00
28448;BME280;15675;52.870;-1.416;2023-12-20T06:28:37;101092.97;;;9.19;100.00
28448;BME280;15675;52.870;-1.416;2023-12-20T06:31:02;101091.53;;;9.35;100.00
28448;BME280;15675;52.870;-1.416;2023-12-20T06:33:28;101085.28;;;9.22;100.00
28448;BME280;15675;52.870;-1.416;2023-12-20T06:35:54;101080.25;;;9.35;100.00
28448;BME280;15675;52.870;-1.416;2023-12-20T06:38:20;101072.41;;;9.28;100.00
28448;BME280;15675;52.870;-1.416;2023-12-20T06:40:45;101087.97;;;9.28;100.00
28448;BME280;15675;52.870;-1.416;2023-12-20T06:43:12;101102.81;;;9.42;100.00
28448;BME280;15675;52.870;-1.416;2023-12-20T06:45:38;101115.63;;;9.29;100.00
28448;BME280;15675;52.870;-1.416;2023-12-20T06:48:04;101119.13;;;9.35;100.00
28448;BME280;15675;52.870;-1.416;2023-12-20T06:50:30;101125.94;;;9.26;100.00
28448;BME280;15675;52.870;-1.416;2023-12-20T06:52:55;101125.72;;;9.72;100.00
28448;BME280;15675;52.870;-1.416;2023-12-20T06:55:21;101122.09;;;9.59;100.00
28448;BME280;15675;52.870;-1.416;2023-12-20T06:57:46;101108.97;;;9.47;100.00
28448;BME280;15675;52.870;-1.416;2023-12-20T07:00:12;101129.19;;;9.16;100.00
28448;BME280;15675;52.870;-1.416;2023-12-20T07:02:38;101137.22;;;9.31;100.00
28448;BME280;15675;52.870;-1.416;2023-12-20T07:05:04;101130.53;;;9.46;100.00
28448;BME280;15675;52.870;-1.416;2023-12-20T07:07:29;101140.72;;;9.33;100.00
28448;BME280;15675;52.870;-1.416;2023-12-20T07:09:55;101150.69;;;9.10;100.00
28448;BME280;15675;52.870;-1.416;2023-12-20T07:12:21;101141.75;;;9.45;100.00
28448;BME280;15675;52.870;-1.416;2023-12-20T07:14:46;101138.28;;;9.44;100.00
28448;BME280;15675;52.870;-1.416;2023-12-20T07:17:12;101133.22;;;9.52;100.00
28448;BME280;15675;52.870;-1.416;2023-12-20T07:19:40;101119.06;;;9.30;100.00
28448;BME280;15675;52.870;-1.416;2023-12-20T07:22:06;101156.25;;;9.32;100.00
28448;BME280;15675;52.870;-1.416;2023-12-20T07:24:32;101150.44;;;9.48;100.00
28448;BME280;15675;52.870;-1.416;2023-12-20T07:26:59;101138.41;;;9.52;100.00
28448;BME280;15675;52.870;-1.416;2023-12-20T07:29:25;101134.81;;;9.44;100.00
28448;BME280;15675;52.870;-1.416;2023-12-20T07:31:50;101143.06;;;9.18;100.00
28448;BME280;15675;52.870;-1.416;2023-12-20T07:34:17;101144.34;;;9.45;100.00
28448;BME280;15675;52.870;-1.416;2023-12-20T07:36:43;101142.75;;;9.55;100.00
28448;BME280;15675;52.870;-1.416;2023-12-20T07:39:08;101139.06;;;9.39;100.00
28448;BME280;15675;52.870;-1.416;2023-12-20T07:41:34;101145.63;;;9.15;100.00
28448;BME280;15675;52.870;-1.416;2023-12-20T07:43:59;101137.88;;;9.17;100.00
28448;BME280;15675;52.870;-1.416;2023-12-20T07:46:25;101137.09;;;9.22;100.00
28448;BME280;15675;52.870;-1.416;2023-12-20T07:48:50;101143.25;;;9.30;100.00
28448;BME280;15675;52.870;-1.416;2023-12-20T07:51:16;101153.75;;;9.38;100.00
28448;BME280;15675;52.870;-1.416;2023-12-20T07:53:42;101160.03;;;9.54;100.00
28448;BME280;15675;52.870;-1.416;2023-12-20T07:56:18;101151.19;;;9.41;100.00
28448;BME280;15675;52.870;-1.416;2023-12-20T07:58:44;101166.56;;;9.30;100.00
28448;BME280;15675;52.870;-1.416;2023-12-20T08:01:11;101166.72;;;9.40;100.00
28448;BME280;15675;52.870;-1.416;2023-12-20T08:03:36;101159.03;;;9.46;100.00
28448;BME280;15675;52.870;-1.416;2023-12-20T08:06:03;101177.16;;;8.91;100.00
28448;BME280;15675;52.870;-1.416;2023-12-20T08:08:29;101179.09;;;9.06;100.00
28448;BME280;15675;52.870;-1.416;2023-12-20T08:10:54;101173.81;;;8.98;100.00
28448;BME280;15675;52.870;-1.416;2023-12-20T08:13:20;101157.84;;;9.24;100.00
28448;BME280;15675;52.870;-1.416;2023-12-20T08:15:50;101158.25;;;8.96;100.00
28448;BME280;15675;52.870;-1.416;2023-12-20T08:18:15;101156.44;;;8.91;100.00
28448;BME280;15675;52.870;-1.416;2023-12-20T08:20:41;101174.97;;;9.17;100.00
28448;BME280;15675;52.870;-1.416;2023-12-20T08:23:06;101183.75;;;9.25;100.00
28448;BME280;15675;52.870;-1.416;2023-12-20T08:25:32;101194.94;;;9.23;100.00
28448;BME280;15675;52.870;-1.416;2023-12-20T08:27:57;101188.16;;;9.31;100.00
28448;BME280;15675;52.870;-1.416;2023-12-20T08:30:23;101186.59;;;9.39;100.00
28448;BME280;15675;52.870;-1.416;2023-12-20T08:32:48;101173.25;;;9.18;100.00
28448;BME280;15675;52.870;-1.416;2023-12-20T08:35:14;101183.63;;;9.19;100.00
28448;BME280;15675;52.870;-1.416;2023-12-20T08:37:39;101184.78;;;9.35;100.00
28448;BME280;15675;52.870;-1.416;2023-12-20T08:40:05;101194.22;;;9.31;100.00
28448;BME280;15675;52.870;-1.416;2023-12-20T08:42:31;101190.25;;;9.54;100.00
28448;BME280;15675;52.870;-1.416;2023-12-20T08:44:57;101198.69;;;9.42;100.00
28448;BME280;15675;52.870;-1.416;2023-12-20T08:47:24;101210.00;;;9.47;100.00
28448;BME280;15675;52.870;-1.416;2023-12-20T08:49:49;101185.41;;;9.22;100.00
28448;BME280;15675;52.870;-1.416;2023-12-20T08:52:15;101202.25;;;9.47;100.00
28448;BME280;15675;52.870;-1.416;2023-12-20T08:54:40;101198.41;;;9.25;100.00
28448;BME280;15675;52.870;-1.416;2023-12-20T08:57:06;101201.81;;;9.21;100.00
28448;BME280;15675;52.870;-1.416;2023-12-20T08:59:32;101198.72;;;9.43;100.00
28448;BME280;15675;52.870;-1.416;2023-12-20T09:01:58;101193.63;;;9.48;100.00
28448;BME280;15675;52.870;-1.416;2023-12-20T09:04:23;101187.28;;;9.30;100.00
28448;BME280;15675;52.870;-1.416;2023-12-20T09:06:49;101194.47;;;9.47;100.00
28448;BME280;15675;52.870;-1.416;2023-12-20T09:09:14;101193.63;;;9.48;100.00
28448;BME280;15675;52.870;-1.416;2023-12-20T09:11:40;101197.81;;;9.40;100.00
28448;BME280;15675;52.870;-1.416;2023-12-20T09:14:06;101202.16;;;9.41;100.00
28448;BME280;15675;52.870;-1.416;2023-12-20T09:16:31;101207.53;;;9.55;100.00
28448;BME280;15675;52.870;-1.416;2023-12-20T09:18:57;101197.81;;;9.40;100.00
28448;BME280;15675;52.870;-1.416;2023-12-20T09:21:23;101197.03;;;9.45;100.00
28448;BME280;15675;52.870;-1.416;2023-12-20T09:23:49;101194.31;;;9.38;100.00
28448;BME280;15675;52.870;-1.416;2023-12-20T09:26:14;101194.56;;;9.53;100.00
28448;BME280;15675;52.870;-1.416;2023-12-20T09:28:40;101180.53;;;9.40;100.00
28448;BME280;15675;52.870;-1.416;2023-12-20T09:31:06;101191.78;;;9.39;100.00
28448;BME280;15675;52.870;-1.416;2023-12-20T09:33:34;101183.75;;;9.25;100.00
28448;BME280;15675;52.870;-1.416;2023-12-20T09:36:00;101183.16;;;9.43;100.00
28448;BME280;15675;52.870;-1.416;2023-12-20T09:38:26;101165.91;;;9.42;100.00
28448;BME280;15675;52.870;-1.416;2023-12-20T09:40:51;101160.91;;;9.56;100.00
28448;BME280;15675;52.870;-1.416;2023-12-20T09:43:19;101160.00;;;9.53;100.00
28448;BME280;15675;52.870;-1.416;2023-12-20T09:45:46;101152.94;;;9.41;100.00
28448;BME280;15675;52.870;-1.416;2023-12-20T09:48:13;101144.63;;;9.63;100.00
28448;BME280;15675;52.870;-1.416;2023-12-20T09:50:41;101148.66;;;9.46;100.00
28448;BME280;15675;52.870;-1.416;2023-12-20T09:53:08;101145.19;;;9.44;100.00
28448;BME280;15675;52.870;-1.416;2023-12-20T09:55:36;101149.88;;;9.68;100.00
28448;BME280;15675;52.870;-1.416;2023-12-20T09:58:02;101137.81;;;9.73;100.00
28448;BME280;15675;52.870;-1.416;2023-12-20T10:00:28;101135.06;;;9.61;100.00
28448;BME280;15675;52.870;-1.416;2023-12-20T10:02:58;101134.19;;;9.60;100.00
28448;BME280;15675;52.870;-1.416;2023-12-20T10:05:31;101119.78;;;9.79;100.00
28448;BME280;15675;52.870;-1.416;2023-12-20T10:07:57;101113.75;;;9.82;100.00
28448;BME280;15675;52.870;-1.416;2023-12-20T10:10:23;101116.94;;;9.62;100.00
28448;BME280;15675;52.870;-1.416;2023-12-20T10:15:27;101128.41;;;9.78;100.00
28448;BME280;15675;52.870;-1.416;2023-12-20T10:17:53;101137.00;;;9.76;100.00
28448;BME280;15675;52.870;-1.416;2023-12-20T10:20:20;101125.69;;;9.69;100.00
28448;BME280;15675;52.870;-1.416;2023-12-20T10:22:46;101137.09;;;9.82;100.00
28448;BME280;15675;52.870;-1.416;2023-12-20T10:25:12;101143.84;;;9.69;100.00
28448;BME280;15675;52.870;-1.416;2023-12-20T10:27:37;101141.59;;;9.97;100.00
28448;BME280;15675;52.870;-1.416;2023-12-20T10:30:03;101140.50;;;9.78;100.00
28448;BME280;15675;52.870;-1.416;2023-12-20T10:32:29;101131.13;;;9.88;100.00
28448;BME280;15675;52.870;-1.416;2023-12-20T10:34:55;101121.44;;;9.76;100.00
28448;BME280;15675;52.870;-1.416;2023-12-20T10:37:21;101125.84;;;9.83;100.00
28448;BME280;15675;52.870;-1.416;2023-12-20T10:39:51;101125.16;;;9.95;100.00
28448;BME280;15675;52.870;-1.416;2023-12-20T10:42:21;101117.63;;;10.16;100.00
28448;BME280;15675;52.870;-1.416;2023-12-20T10:44:47;101111.50;;;10.10;100.00
28448;BME280;15675;52.870;-1.416;2023-12-20T10:47:13;101108.09;;;10.15;100.00
28448;BME280;15675;52.870;-1.416;2023-12-20T10:49:39;101090.88;;;10.19;100.00
28448;BME280;15675;52.870;-1.416;2023-12-20T10:52:06;101089.38;;;10.38;100.00
28448;BME280;15675;52.870;-1.416;2023-12-20T10:54:32;101091.78;;;10.24;100.00
28448;BME280;15675;52.870;-1.416;2023-12-20T10:56:58;101070.84;;;10.10;100.00
28448;BME280;15675;52.870;-1.416;2023-12-20T10:59:27;101072.75;;;10.24;100.00
28448;BME280;15675;52.870;-1.416;2023-12-20T11:01:54;101069.56;;;10.46;100.00
28448;BME280;15675;52.870;-1.416;2023-12-20T11:04:26;101048.84;;;10.51;100.00
28448;BME280;15675;52.870;-1.416;2023-12-20T11:07:25;101045.22;;;10.35;100.00
28448;BME280;15675;52.870;-1.416;2023-12-20T11:10:13;101024.31;;;10.23;100.00
28448;BME280;15675;52.870;-1.416;2023-12-20T11:12:48;101020.06;;;10.31;100.00
28448;BME280;15675;52.870;-1.416;2023-12-20T11:15:17;101026.69;;;10.02;100.00
28448;BME280;15675;52.870;-1.416;2023-12-20T11:17:44;101015.03;;;10.43;100.00
28448;BME280;15675;52.870;-1.416;2023-12-20T11:20:12;101018.34;;;10.33;100.00
28448;BME280;15675;52.870;-1.416;2023-12-20T11:22:39;101001.81;;;10.23;100.00
28448;BME280;15675;52.870;-1.416;2023-12-20T11:25:16;101019.22;;;10.30;100.00
28448;BME280;15675;52.870;-1.416;2023-12-20T11:27:43;101004.34;;;10.14;100.00
28448;BME280;15675;52.870;-1.416;2023-12-20T11:30:09;100995.31;;;9.76;100.00
28448;BME280;15675;52.870;-1.416;2023-12-20T11:32:36;100988.66;;;10.05;100.00
28448;BME280;15675;52.870;-1.416;2023-12-20T11:37:37;100980.06;;;10.07;100.00
28448;BME280;15675;52.870;-1.416;2023-12-20T11:40:08;100967.72;;;9.84;100.00
28448;BME280;15675;52.870;-1.416;2023-12-20T11:42:40;100968.78;;;10.04;100.00
28448;BME280;15675;52.870;-1.416;2023-12-20T11:45:18;100940.44;;;10.22;100.00
28448;BME280;15675;52.870;-1.416;2023-12-20T11:47:48;100954.25;;;10.23;100.00
28448;BME280;15675;52.870;-1.416;2023-12-20T11:50:21;100937.56;;;9.93;100.00
28448;BME280;15675;52.870;-1.416;2023-12-20T11:52:47;100954.34;;;10.32;100.00
28448;BME280;15675;52.870;-1.416;2023-12-20T11:55:13;100956.81;;;10.18;100.00
28448;BME280;15675;52.870;-1.416;2023-12-20T11:57:39;100945.81;;;10.39;100.00
28448;BME280;15675;52.870;-1.416;2023-12-20T12:00:05;100955.56;;;10.79;100.00
28448;BME280;15675;52.870;-1.416;2023-12-20T12:02:32;100948.59;;;10.70;100.00
28448;BME280;15675;52.870;-1.416;2023-12-20T12:04:59;100942.44;;;10.56;100.00
28448;BME280;15675;52.870;-1.416;2023-12-20T12:07:24;100929.97;;;10.14;100.00
28448;BME280;15675;52.870;-1.416;2023-12-20T12:09:50;100922.25;;;10.21;100.00
28448;BME280;15675;52.870;-1.416;2023-12-20T12:12:17;100918.03;;;10.33;100.00
28448;BME280;15675;52.870;-1.416;2023-12-20T12:14:44;100902.56;;;10.44;100.00
28448;BME280;15675;52.870;-1.416;2023-12-20T12:17:13;100904.28;;;10.39;100.00
28448;BME280;15675;52.870;-1.416;2023-12-20T12:19:43;100903.38;;;10.35;100.00
28448;BME280;15675;52.870;-1.416;2023-12-20T12:22:10;100906.13;;;10.60;100.00
28448;BME280;15675;52.870;-1.416;2023-12-20T12:24:46;100892.25;;;10.49;100.00
28448;BME280;15675;52.870;-1.416;2023-12-20T12:27:13;100884.34;;;10.35;100.00
28448;BME280;15675;52.870;-1.416;2023-12-20T12:29:39;100880.13;;;10.46;100.00
28448;BME280;15675;52.870;-1.416;2023-12-20T12:32:06;100882.00;;;10.77;100.00
28448;BME280;15675;52.870;-1.416;2023-12-20T12:34:33;100862.06;;;10.69;100.00
28448;BME280;15675;52.870;-1.416;2023-12-20T12:37:00;100866.41;;;10.70;100.00
28448;BME280;15675;52.870;-1.416;2023-12-20T12:39:26;100868.88;;;10.49;100.00